createdAt,value
2023-12-11T16:11:28.182Z,50.00
2023-12-11T16:12:28.207Z,50.00
2023-12-11T16:13:28.223Z,50.00
2023-12-11T16:14:28.227Z,50.00
2023-12-11T16:15:28.220Z,50.00
2023-12-11T16:16:28.382Z,0.00
2023-12-11T16:17:28.386Z,0.00
2023-12-11T16:18:28.311Z,0.00
2023-12-11T16:19:28.328Z,0.00
2023-12-11T16:20:28.230Z,0.00
2023-12-11T16:21:28.209Z,0.00
2023-12-11T16:22:28.309Z,0.00
2023-12-11T16:23:28.224Z,0.00
2023-12-11T16:24:28.212Z,0.00
2023-12-11T16:25:28.407Z,0.00
2023-12-11T16:26:28.205Z,0.00
2023-12-11T16:27:28.542Z,0.00
2023-12-11T16:28:28.290Z,0.00
2023-12-11T16:29:28.203Z,0.00
2023-12-11T16:30:28.230Z,0.00
2023-12-11T16:31:28.328Z,0.00
2023-12-11T16:32:28.467Z,0.00
2023-12-11T16:33:28.255Z,0.00
2023-12-11T16:34:28.372Z,0.00
2023-12-11T16:35:28.223Z,0.00
2023-12-11T16:36:28.249Z,0.00
2023-12-11T16:37:28.318Z,0.00
2023-12-11T16:38:28.270Z,0.00
2023-12-11T16:39:28.204Z,0.00
2023-12-11T16:40:28.317Z,0.00
2023-12-11T16:41:28.319Z,0.00
2023-12-11T16:42:28.480Z,0.00
2023-12-11T16:43:28.315Z,0.00
2023-12-11T16:44:28.232Z,0.00
2023-12-11T16:45:28.250Z,0.00
2023-12-11T16:46:28.292Z,0.00
2023-12-11T16:47:28.256Z,0.00
2023-12-11T16:48:28.286Z,0.00
2023-12-11T16:49:28.446Z,0.00
2023-12-11T16:50:28.368Z,0.00
2023-12-11T16:51:28.257Z,0.00
2023-12-11T16:52:28.476Z,0.00
2023-12-11T16:53:28.238Z,0.00
2023-12-11T16:54:28.235Z,0.00
2023-12-11T16:55:28.307Z,0.00
2023-12-11T16:56:28.230Z,0.00
2023-12-11T16:57:30.070Z,0.00
2023-12-11T16:58:28.281Z,0.00
2023-12-11T16:59:28.274Z,0.00
2023-12-11T17:00:28.249Z,0.00
2023-12-11T17:01:28.353Z,0.00
2023-12-11T17:02:28.250Z,0.00
2023-12-11T17:03:28.309Z,0.00
2023-12-11T17:04:28.454Z,0.00
2023-12-11T17:05:28.424Z,0.00
2023-12-11T17:06:28.461Z,0.00
2023-12-11T17:07:28.538Z,0.00
2023-12-11T17:08:28.576Z,0.00
2023-12-11T17:09:28.609Z,11.72
2023-12-11T17:10:28.936Z,30.30
2023-12-11T17:11:28.743Z,46.84
2023-12-11T17:12:29.064Z,49.40
2023-12-11T17:13:28.934Z,51.88
2023-12-11T17:14:28.901Z,52.25
2023-12-11T17:15:28.978Z,50.93
2023-12-11T17:16:29.065Z,50.51
2023-12-11T17:17:29.324Z,50.47
2023-12-11T17:18:29.254Z,50.00
2023-12-11T17:19:29.225Z,51.35
2023-12-11T17:20:29.232Z,50.71
2023-12-11T17:21:33.917Z,47.01
2023-12-11T17:22:30.352Z,48.32
2023-12-11T17:23:29.304Z,44.98
2023-12-11T17:24:29.301Z,41.99
2023-12-11T17:25:29.432Z,40.60
2023-12-11T17:26:29.327Z,38.68
2023-12-11T17:27:29.597Z,50.74
2023-12-11T17:28:29.361Z,50.00
2023-12-11T17:29:29.316Z,51.61
2023-12-11T17:30:29.346Z,50.53
2023-12-11T17:31:29.424Z,50.24
2023-12-11T17:32:29.672Z,51.58
2023-12-11T17:33:29.558Z,52.16
2023-12-11T17:34:29.700Z,50.00
2023-12-11T17:35:29.677Z,50.00
2023-12-11T17:36:29.703Z,50.72
2023-12-11T17:37:29.813Z,51.47
2023-12-11T17:38:29.818Z,52.70
2023-12-11T17:39:29.914Z,50.84
2023-12-11T17:40:30.094Z,50.94
2023-12-11T17:41:30.024Z,50.00
2023-12-11T17:42:30.220Z,50.00
2023-12-11T17:43:30.185Z,50.86
2023-12-11T17:44:30.197Z,51.79
2023-12-11T17:45:30.258Z,50.89
2023-12-11T17:46:30.377Z,50.37
2023-12-11T17:47:30.434Z,51.48
2023-12-11T17:48:30.574Z,52.96
2023-12-11T17:49:30.624Z,50.26
2023-12-11T17:50:30.584Z,50.86
2023-12-11T17:51:31.327Z,50.16
2023-12-11T17:52:31.067Z,50.90
2023-12-11T17:53:30.786Z,51.75
2023-12-11T17:54:30.833Z,50.46
2023-12-11T17:55:30.901Z,51.78
2023-12-11T17:56:30.935Z,51.49
2023-12-11T17:57:31.424Z,51.69
2023-12-11T17:58:31.117Z,51.54
2023-12-11T17:59:31.119Z,50.98
2023-12-11T18:00:31.285Z,52.51
2023-12-11T18:01:31.308Z,52.51
2023-12-11T18:02:31.295Z,51.95
2023-12-11T18:03:31.374Z,50.00
2023-12-11T18:04:31.480Z,52.58
2023-12-11T18:05:31.483Z,51.24
2023-12-11T18:06:31.600Z,50.85
2023-12-11T18:07:31.796Z,50.62
2023-12-11T18:08:31.658Z,51.14
2023-12-11T18:09:31.695Z,50.46
2023-12-11T18:10:34.401Z,50.99
2023-12-11T18:11:31.727Z,52.33
2023-12-11T18:12:31.745Z,52.07
2023-12-11T18:13:31.791Z,51.31
2023-12-11T18:14:31.746Z,51.02
2023-12-11T18:15:31.774Z,50.50
2023-12-11T18:16:31.818Z,52.44
2023-12-11T18:17:31.955Z,52.47
2023-12-11T18:18:31.852Z,51.91
2023-12-11T18:19:31.880Z,51.42
2023-12-11T18:20:31.782Z,50.61
2023-12-11T18:21:31.744Z,54.65
2023-12-11T18:22:31.776Z,53.16
2023-12-11T18:23:31.773Z,52.40
2023-12-11T18:24:31.761Z,50.13
2023-12-11T18:25:31.814Z,51.15
2023-12-11T18:26:31.767Z,54.80
2023-12-11T18:27:31.939Z,53.90
2023-12-11T18:28:31.864Z,50.90
2023-12-11T18:29:31.796Z,52.32
2023-12-11T18:30:31.778Z,51.53
2023-12-11T18:31:31.802Z,51.02
2023-12-11T18:32:32.011Z,50.00
2023-12-11T18:33:31.887Z,50.68
2023-12-11T18:34:39.931Z,51.48
2023-12-11T18:35:32.932Z,51.65
2023-12-11T18:36:31.809Z,51.76
2023-12-11T18:37:32.060Z,51.80
2023-12-11T18:38:31.900Z,51.04
2023-12-11T18:39:31.802Z,48.52
2023-12-11T18:40:31.852Z,50.40
2023-12-11T18:41:31.775Z,50.76
2023-12-11T18:42:31.848Z,51.63
2023-12-11T18:43:31.865Z,51.44
2023-12-11T18:44:31.916Z,52.22
2023-12-11T18:45:32.081Z,50.10
2023-12-11T18:46:32.066Z,51.80
2023-12-11T18:47:32.412Z,50.57
2023-12-11T18:48:32.232Z,51.79
2023-12-11T18:49:32.349Z,52.45
2023-12-11T18:50:32.261Z,50.22
2023-12-11T18:51:32.307Z,51.55
2023-12-11T18:52:32.390Z,50.80
2023-12-11T18:53:32.446Z,52.24
2023-12-11T18:54:32.538Z,53.19
2023-12-11T18:55:32.773Z,53.52
2023-12-11T18:56:32.622Z,51.99
2023-12-11T18:57:32.900Z,51.50
2023-12-11T18:58:32.812Z,53.81
2023-12-11T18:59:32.837Z,51.04
2023-12-11T19:00:32.964Z,50.00
2023-12-11T19:01:33.148Z,51.82
2023-12-11T19:02:33.335Z,50.35
2023-12-11T19:03:33.130Z,52.32
2023-12-11T19:04:33.252Z,51.76
2023-12-11T19:05:33.228Z,50.24
2023-12-11T19:06:33.225Z,50.75
2023-12-11T19:07:33.812Z,50.68
2023-12-11T19:08:33.482Z,52.83
2023-12-11T19:09:33.423Z,50.64
2023-12-11T19:10:33.534Z,53.51
2023-12-11T19:11:33.523Z,50.00
2023-12-11T19:12:33.565Z,52.67
2023-12-11T19:13:33.637Z,55.51
2023-12-11T19:14:33.631Z,52.55
2023-12-11T19:15:33.687Z,51.30
2023-12-11T19:16:33.721Z,52.78
2023-12-11T19:17:34.160Z,52.23
2023-12-11T19:18:33.863Z,55.96
2023-12-11T19:19:33.949Z,53.66
2023-12-11T19:20:33.883Z,53.91
2023-12-11T19:21:33.906Z,51.87
2023-12-11T19:22:33.989Z,52.04
2023-12-11T19:23:33.985Z,50.62
2023-12-11T19:24:34.039Z,53.64
2023-12-11T19:25:34.106Z,52.02
2023-12-11T19:26:34.092Z,51.48
2023-12-11T19:27:34.185Z,50.71
2023-12-11T19:28:34.183Z,52.83
2023-12-11T19:29:34.180Z,50.79
2023-12-11T19:30:34.276Z,49.92
2023-12-11T19:31:34.380Z,52.03
2023-12-11T19:32:34.364Z,52.77
2023-12-11T19:33:34.445Z,52.37
2023-12-11T19:34:34.477Z,52.04
2023-12-11T19:35:34.420Z,51.55
2023-12-11T19:36:34.429Z,51.57
2023-12-11T19:37:34.915Z,51.62
2023-12-11T19:38:34.503Z,50.81
2023-12-11T19:39:34.495Z,53.13
2023-12-11T19:40:34.582Z,50.84
2023-12-11T19:41:34.557Z,50.55
2023-12-11T19:42:34.580Z,50.09
2023-12-11T19:43:34.601Z,52.21
2023-12-11T19:44:34.606Z,52.71
2023-12-11T19:45:34.619Z,52.81
2023-12-11T19:46:34.621Z,54.41
2023-12-11T19:47:34.947Z,53.00
2023-12-11T19:48:34.733Z,54.02
2023-12-11T19:49:34.661Z,52.12
2023-12-11T19:50:34.665Z,54.25
2023-12-11T19:51:34.647Z,52.91
2023-12-11T19:52:34.741Z,53.18
2023-12-11T19:53:34.704Z,50.14
2023-12-11T19:54:34.690Z,52.10
2023-12-11T19:55:34.783Z,51.96
2023-12-11T19:56:34.739Z,52.07
2023-12-11T19:57:34.711Z,50.71
2023-12-11T19:58:34.788Z,52.52
2023-12-11T19:59:34.724Z,51.59
2023-12-11T20:00:34.775Z,50.08
2023-12-11T20:01:34.922Z,53.14
2023-12-11T20:02:34.765Z,51.50
2023-12-11T20:03:34.789Z,54.86
2023-12-11T20:04:34.840Z,52.19
2023-12-11T20:05:34.846Z,52.67
2023-12-11T20:06:34.819Z,50.79
2023-12-11T20:07:35.249Z,50.74
2023-12-11T20:08:34.846Z,51.48
2023-12-11T20:09:34.844Z,52.37
2023-12-11T20:10:34.904Z,50.79
2023-12-11T20:11:34.859Z,52.70
2023-12-11T20:12:34.976Z,50.61
2023-12-11T20:13:34.920Z,53.61
2023-12-11T20:14:34.907Z,53.85
2023-12-11T20:15:34.917Z,51.24
2023-12-11T20:16:34.942Z,52.27
2023-12-11T20:17:35.363Z,53.82
2023-12-11T20:18:34.969Z,53.27
2023-12-11T20:19:35.073Z,50.00
2023-12-11T20:20:34.967Z,53.54
2023-12-11T20:21:34.977Z,50.43
2023-12-11T20:22:35.049Z,54.16
2023-12-11T20:23:34.989Z,53.46
2023-12-11T20:24:35.025Z,54.87
2023-12-11T20:25:35.083Z,54.31
2023-12-11T20:26:35.035Z,53.64
2023-12-11T20:27:35.226Z,51.95
2023-12-11T20:28:35.035Z,52.92
2023-12-11T20:29:35.078Z,52.17
2023-12-11T20:30:35.101Z,52.83
2023-12-11T20:31:35.200Z,53.45
2023-12-11T20:32:35.187Z,54.69
2023-12-11T20:33:35.196Z,52.79
2023-12-11T20:34:35.902Z,50.08
2023-12-11T20:35:35.120Z,52.02
2023-12-11T20:36:35.124Z,52.32
2023-12-11T20:37:35.559Z,55.15
2023-12-11T20:38:35.132Z,52.56
2023-12-11T20:39:35.177Z,53.48
2023-12-11T20:40:35.176Z,51.99
2023-12-11T20:41:35.176Z,51.26
2023-12-11T20:42:35.175Z,50.00
2023-12-11T20:43:35.189Z,52.29
2023-12-11T20:44:35.171Z,52.15
2023-12-11T20:45:35.218Z,53.75
2023-12-11T20:46:35.378Z,52.84
2023-12-11T20:47:35.277Z,51.46
2023-12-11T20:48:35.286Z,53.55
2023-12-11T20:49:35.394Z,51.80
2023-12-11T20:50:35.265Z,53.92
2023-12-11T20:51:35.274Z,51.61
2023-12-11T20:52:35.320Z,50.38
2023-12-11T20:53:35.270Z,51.90
2023-12-11T20:54:35.296Z,50.10
2023-12-11T20:55:35.345Z,51.25
2023-12-11T20:56:35.309Z,53.31
2023-12-11T20:57:35.313Z,52.21
2023-12-11T20:58:35.347Z,51.94
2023-12-11T20:59:35.394Z,50.55
2023-12-11T21:00:35.397Z,50.91
2023-12-11T21:01:35.553Z,52.76
2023-12-11T21:02:35.416Z,51.44
2023-12-11T21:03:35.448Z,53.44
2023-12-11T21:04:35.519Z,52.69
2023-12-11T21:05:35.503Z,51.59
2023-12-11T21:06:35.519Z,52.21
2023-12-11T21:07:35.538Z,53.06
2023-12-11T21:08:39.349Z,52.03
2023-12-11T21:09:36.532Z,52.09
2023-12-11T21:10:35.539Z,52.12
2023-12-11T21:11:35.580Z,52.37
2023-12-11T21:12:35.559Z,51.15
2023-12-11T21:13:35.554Z,49.77
2023-12-11T21:14:35.531Z,50.50
2023-12-11T21:15:35.572Z,52.57
2023-12-11T21:16:35.801Z,51.93
2023-12-11T21:17:35.767Z,52.03
2023-12-11T21:18:35.657Z,51.40
2023-12-11T21:19:35.715Z,51.17
2023-12-11T21:20:35.556Z,50.29
2023-12-11T21:21:35.575Z,50.89
2023-12-11T21:22:35.571Z,51.74
2023-12-11T21:23:35.580Z,50.81
2023-12-11T21:24:35.565Z,52.40
2023-12-11T21:25:35.636Z,51.11
2023-12-11T21:26:35.678Z,51.30
2023-12-11T21:27:35.648Z,50.90
2023-12-11T21:28:35.557Z,50.16
2023-12-11T21:29:35.595Z,52.45
2023-12-11T21:30:35.585Z,52.18
2023-12-11T21:31:35.630Z,50.79
2023-12-11T21:32:35.610Z,51.38
2023-12-11T21:33:35.624Z,51.33
2023-12-11T21:34:35.649Z,50.44
2023-12-11T21:35:35.585Z,51.36
2023-12-11T21:36:35.632Z,53.15
2023-12-11T21:37:36.048Z,51.41
2023-12-11T21:38:35.572Z,51.15
2023-12-11T21:39:35.600Z,50.95
2023-12-11T21:40:35.638Z,51.83
2023-12-11T21:41:35.598Z,52.21
2023-12-11T21:42:35.598Z,53.17
2023-12-11T21:43:35.620Z,52.42
2023-12-11T21:44:35.669Z,52.26
2023-12-11T21:45:35.670Z,51.82
2023-12-11T21:46:35.725Z,50.54
2023-12-11T21:47:36.135Z,50.30
2023-12-11T21:48:35.811Z,51.88
2023-12-11T21:49:35.824Z,50.59
2023-12-11T21:50:35.794Z,51.22
2023-12-11T21:51:35.829Z,52.15
2023-12-11T21:52:35.955Z,52.08
2023-12-11T21:53:35.877Z,51.99
2023-12-11T21:54:35.881Z,51.61
2023-12-11T21:55:35.901Z,52.84
2023-12-11T21:56:35.923Z,53.39
2023-12-11T21:57:35.933Z,54.41
2023-12-11T21:58:35.971Z,51.93
2023-12-11T21:59:42.702Z,54.17
2023-12-11T22:00:37.007Z,54.21
2023-12-11T22:01:36.093Z,50.92
2023-12-11T22:02:36.036Z,50.83
2023-12-11T22:03:36.037Z,52.28
2023-12-11T22:04:35.994Z,50.12
2023-12-11T22:05:36.004Z,51.54
2023-12-11T22:06:35.997Z,50.41
2023-12-11T22:07:36.515Z,50.32
2023-12-11T22:08:35.975Z,51.80
2023-12-11T22:09:35.993Z,53.53
2023-12-11T22:10:35.989Z,52.59
2023-12-11T22:11:35.996Z,50.73
2023-12-11T22:12:36.010Z,50.28
2023-12-11T22:13:36.026Z,51.75
2023-12-11T22:14:36.016Z,52.38
2023-12-11T22:15:36.010Z,53.51
2023-12-11T22:16:39.419Z,53.10
2023-12-11T22:17:36.027Z,52.61
2023-12-11T22:18:36.055Z,50.57
2023-12-11T22:19:36.057Z,52.98
2023-12-11T22:20:36.012Z,49.87
2023-12-11T22:21:36.012Z,49.57
2023-12-11T22:22:35.999Z,51.84
2023-12-11T22:23:35.995Z,53.12
2023-12-11T22:24:36.017Z,50.00
2023-12-11T22:25:36.007Z,52.80
2023-12-11T22:26:36.048Z,53.50
2023-12-11T22:27:36.018Z,52.48
2023-12-11T22:28:36.045Z,52.97
2023-12-11T22:29:36.009Z,50.24
2023-12-11T22:30:36.028Z,51.30
2023-12-11T22:31:36.131Z,52.18
2023-12-11T22:32:36.057Z,52.95
2023-12-11T22:33:36.057Z,52.92
2023-12-11T22:34:36.160Z,50.86
2023-12-11T22:35:36.057Z,54.17
2023-12-11T22:36:36.037Z,52.25
2023-12-11T22:37:36.047Z,52.44
2023-12-11T22:38:36.078Z,52.80
2023-12-11T22:39:36.072Z,52.78
2023-12-11T22:40:36.122Z,50.00
2023-12-11T22:41:36.065Z,54.30
2023-12-11T22:42:36.054Z,51.06
2023-12-11T22:43:36.094Z,51.51
2023-12-11T22:44:36.062Z,53.24
2023-12-11T22:45:36.055Z,52.92
2023-12-11T22:46:36.115Z,53.13
2023-12-11T22:47:36.305Z,51.47
2023-12-11T22:48:36.093Z,51.60
2023-12-11T22:49:36.124Z,50.44
2023-12-11T22:50:36.067Z,51.67
2023-12-11T22:51:36.099Z,53.57
2023-12-11T22:52:36.112Z,51.20
2023-12-11T22:53:36.060Z,50.08
2023-12-11T22:54:36.079Z,53.71
2023-12-11T22:55:36.109Z,53.90
2023-12-11T22:56:36.094Z,52.58
2023-12-11T22:57:36.075Z,51.69
2023-12-11T22:58:36.113Z,52.80
2023-12-11T22:59:36.081Z,52.56
2023-12-11T23:00:36.138Z,51.61
2023-12-11T23:01:36.205Z,52.26
2023-12-11T23:02:36.093Z,50.10
2023-12-11T23:03:36.100Z,53.27
2023-12-11T23:04:36.166Z,50.66
2023-12-11T23:05:36.187Z,51.39
2023-12-11T23:06:36.113Z,51.21
2023-12-11T23:07:36.618Z,52.52
2023-12-11T23:08:36.147Z,52.59
2023-12-11T23:09:36.131Z,52.58
2023-12-11T23:10:36.252Z,50.74
2023-12-11T23:11:36.118Z,51.70
2023-12-11T23:12:36.104Z,53.84
2023-12-11T23:13:36.183Z,52.04
2023-12-11T23:14:36.113Z,50.00
2023-12-11T23:15:36.119Z,55.03
2023-12-11T23:16:36.164Z,51.59
2023-12-11T23:17:36.680Z,52.02
2023-12-11T23:18:36.205Z,51.91
2023-12-11T23:19:36.192Z,52.86
2023-12-11T23:20:36.152Z,52.00
2023-12-11T23:21:36.138Z,53.51
2023-12-11T23:22:36.150Z,51.01
2023-12-11T23:23:36.120Z,51.63
2023-12-11T23:24:36.155Z,51.89
2023-12-11T23:25:37.198Z,52.52
2023-12-11T23:26:36.139Z,52.18
2023-12-11T23:27:36.139Z,51.93
2023-12-11T23:28:36.186Z,51.80
2023-12-11T23:29:36.147Z,52.74
2023-12-11T23:30:36.153Z,52.60
2023-12-11T23:31:36.203Z,53.07
2023-12-11T23:32:36.230Z,51.88
2023-12-11T23:33:36.212Z,52.22
2023-12-11T23:34:36.184Z,51.12
2023-12-11T23:35:36.134Z,52.44
2023-12-11T23:36:37.203Z,53.32
2023-12-11T23:37:36.479Z,51.19
2023-12-11T23:38:36.168Z,52.43
2023-12-11T23:39:36.166Z,52.16
2023-12-11T23:40:36.193Z,54.15
2023-12-11T23:41:36.194Z,50.03
2023-12-11T23:42:36.303Z,51.97
2023-12-11T23:43:36.210Z,51.91
2023-12-11T23:44:36.171Z,53.16
2023-12-11T23:45:36.190Z,50.75
2023-12-11T23:46:36.343Z,54.46
2023-12-11T23:47:36.621Z,50.00
2023-12-11T23:48:36.247Z,53.40
2023-12-11T23:49:36.272Z,52.51
2023-12-11T23:50:36.209Z,52.49
2023-12-11T23:51:36.183Z,51.75
2023-12-11T23:52:36.290Z,52.76
2023-12-11T23:53:36.198Z,52.17
2023-12-11T23:54:36.178Z,54.06
2023-12-11T23:55:36.234Z,52.36
2023-12-11T23:56:36.942Z,51.53
2023-12-11T23:57:36.177Z,52.68
2023-12-11T23:58:36.230Z,52.65
2023-12-11T23:59:36.188Z,52.93
